Time;durP1;ratioP1;P1;durP2;ratioP2;P2;SDS_P1;SDS_P2;PMS_P1;PMS_P2;Temp;Humidity;BMP_temperature;BMP_pressure;BME280_temperature;BME280_humidity;BME280_pressure;Samples;Min_cycle;Max_cycle;Signal;HPM_P1;HPM_P2
2022/10/12 00:02:48;;;;;;;51.68;26.57;;;;;;;3.39;100.00;99768.88;2108116;83;20945;-89
2022/10/12 00:05:50;;;;;;;39.63;24.05;;;;;;;3.40;100.00;99771.83;2083408;83;21000;-89
2022/10/12 00:08:51;;;;;;;44.15;25.20;;;;;;;3.38;100.00;99771.08;2070843;83;21041;-88
2022/10/12 00:11:51;;;;;;;45.25;24.72;;;;;;;3.37;100.00;99765.55;2108350;85;20989;-89
2022/10/12 00:14:52;;;;;;;48.75;24.95;;;;;;;3.35;100.00;99764.37;2108300;85;21009;-88
2022/10/12 00:17:53;;;;;;;41.70;24.67;;;;;;;3.36;100.00;99769.91;2107991;85;21068;-88
2022/10/12 00:20:54;;;;;;;41.80;24.92;;;;;;;3.35;100.00;99773.42;2108279;85;21465;-89
2022/10/12 00:23:55;;;;;;;45.70;24.25;;;;;;;3.36;100.00;99767.78;2107618;85;21048;-88
2022/10/12 00:26:56;;;;;;;41.80;23.18;;;;;;;3.37;100.00;99771.55;2107891;85;21552;-89
2022/10/12 00:29:56;;;;;;;42.25;24.95;;;;;;;3.37;100.00;99772.84;2107943;85;21621;-88
2022/10/12 00:32:57;;;;;;;41.68;24.63;;;;;;;3.34;100.00;99774.36;2069598;86;20988;-89
2022/10/12 00:35:58;;;;;;;40.15;24.15;;;;;;;3.26;100.00;99775.37;2108089;84;21038;-89
2022/10/12 00:38:58;;;;;;;39.48;22.37;;;;;;;3.23;100.00;99778.65;2107820;85;21060;-89
2022/10/12 00:41:59;;;;;;;33.13;20.75;;;;;;;3.17;100.00;99779.89;2107949;85;21024;-88
2022/10/12 00:45:00;;;;;;;34.55;21.33;;;;;;;3.12;100.00;99785.40;2069662;86;20982;-89
2022/10/12 00:48:03;;;;;;;30.90;19.50;;;;;;;3.06;100.00;99783.23;2108079;85;21072;-89
2022/10/12 00:51:03;;;;;;;38.00;19.67;;;;;;;2.99;100.00;99777.28;2069436;86;21066;-89
2022/10/12 00:54:04;;;;;;;29.10;18.10;;;;;;;2.94;100.00;99775.49;2108487;84;20974;-89
2022/10/12 00:57:05;;;;;;;32.00;19.60;;;;;;;2.92;100.00;99780.75;2108312;85;21024;-88
2022/10/12 01:00:05;;;;;;;27.17;17.42;;;;;;;2.87;100.00;99784.12;2107868;85;21037;-89
2022/10/12 01:03:06;;;;;;;29.15;18.05;;;;;;;2.84;100.00;99784.34;2069622;86;20946;-89
2022/10/12 01:06:07;;;;;;;35.23;19.57;;;;;;;2.81;100.00;99785.36;2109226;83;21001;-88
2022/10/12 01:09:08;;;;;;;30.77;18.75;;;;;;;2.80;100.00;99780.30;2109758;83;21027;-88
2022/10/12 01:12:08;;;;;;;34.25;18.65;;;;;;;2.83;100.00;99781.38;2070545;83;21040;-89
2022/10/12 01:15:09;;;;;;;27.35;18.73;;;;;;;2.82;100.00;99783.13;2108364;85;21124;-89
2022/10/12 01:18:10;;;;;;;28.55;19.57;;;;;;;2.80;100.00;99780.30;2107958;85;21001;-90
2022/10/12 01:21:11;;;;;;;36.45;18.73;;;;;;;2.77;100.00;99781.34;2107860;85;21036;-89
2022/10/12 01:24:12;;;;;;;27.22;18.00;;;;;;;2.76;100.00;99782.28;2107911;85;20989;-89
2022/10/12 01:27:13;;;;;;;28.80;17.80;;;;;;;2.74;100.00;99782.00;2069515;86;21078;-88
2022/10/12 01:30:13;;;;;;;28.12;17.95;;;;;;;2.68;100.00;99777.26;2107927;84;20961;-89
2022/10/12 01:33:14;;;;;;;20.65;16.12;;;;;;;2.62;100.00;99778.95;2107964;85;20989;-89
2022/10/12 01:36:15;;;;;;;25.55;15.95;;;;;;;2.54;100.00;99786.75;2107911;85;21040;-88
2022/10/12 01:39:16;;;;;;;24.72;16.73;;;;;;;2.47;100.00;99785.53;2107917;85;21049;-88
2022/10/12 01:42:16;;;;;;;20.52;15.50;;;;;;;2.43;100.00;99787.94;2107892;85;21006;-89
2022/10/12 01:45:17;;;;;;;22.22;15.40;;;;;;;2.41;100.00;99788.52;2107861;85;21005;-88
2022/10/12 01:48:17;;;;;;;22.37;16.32;;;;;;;2.39;100.00;99786.97;2102972;85;21044;-88
2022/10/12 01:51:18;;;;;;;22.27;15.40;;;;;;;2.39;100.00;99793.43;2073718;86;21015;-89
2022/10/12 01:54:19;;;;;;;29.65;16.37;;;;;;;2.38;100.00;99794.33;2073719;86;21476;-89
2022/10/12 01:57:20;;;;;;;23.50;15.58;;;;;;;2.38;100.00;99795.19;2073720;86;21044;-89
2022/10/12 02:00:20;;;;;;;25.43;16.32;;;;;;;2.35;100.00;99792.78;2073730;86;21082;-88
2022/10/12 02:03:21;;;;;;;22.62;14.33;;;;;;;2.35;100.00;99799.25;2073726;86;21013;-88
2022/10/12 02:06:22;;;;;;;27.27;16.07;;;;;;;2.36;100.00;99794.91;2074362;82;21171;-87
2022/10/12 02:09:23;;;;;;;29.95;15.72;;;;;;;2.31;100.00;99788.77;2075083;82;21075;-87
2022/10/12 02:12:23;;;;;;;22.05;15.05;;;;;;;2.32;100.00;99787.83;2074711;82;21043;-88
2022/10/12 02:15:24;;;;;;;20.97;15.80;;;;;;;2.31;100.00;99787.47;2074055;86;21052;-88
2022/10/12 02:18:25;;;;;;;28.25;16.23;;;;;;;2.31;100.00;99790.52;2073948;86;21008;-89
2022/10/12 02:21:26;;;;;;;19.77;15.03;;;;;;;2.30;100.00;99788.87;2073738;86;20988;-89
2022/10/12 02:24:26;;;;;;;19.82;14.80;;;;;;;2.26;100.00;99792.92;2073684;86;20996;-88
2022/10/12 02:27:27;;;;;;;26.17;14.13;;;;;;;2.19;100.00;99793.42;2073643;86;21031;-87
2022/10/12 02:30:28;;;;;;;28.05;17.57;;;;;;;2.14;100.00;99787.74;2073951;86;20984;-89
2022/10/12 02:33:29;;;;;;;24.67;14.33;;;;;;;2.13;100.00;99786.09;2073832;86;21023;-89
2022/10/12 02:36:29;;;;;;;16.73;12.93;;;;;;;2.03;100.00;99785.03;2073897;86;21004;-89
2022/10/12 02:39:30;;;;;;;24.00;15.00;;;;;;;1.92;100.00;99785.70;2073766;86;21020;-88
2022/10/12 02:42:31;;;;;;;21.97;14.53;;;;;;;1.80;100.00;99788.61;2073714;86;21036;-89
2022/10/12 02:45:31;;;;;;;21.73;13.93;;;;;;;1.79;100.00;99795.17;2073654;86;21028;-90
2022/10/12 02:48:32;;;;;;;21.65;14.18;;;;;;;1.83;100.00;99794.03;2074390;84;21547;-89
2022/10/12 02:51:33;;;;;;;21.80;13.65;;;;;;;1.81;100.00;99798.02;2079085;86;21016;-89
2022/10/12 02:54:34;;;;;;;21.05;12.85;;;;;;;1.81;100.00;99795.89;2079432;86;21000;-88
2022/10/12 02:57:34;;;;;;;21.42;14.00;;;;;;;1.81;100.00;99795.43;2079737;86;21016;-88
2022/10/12 03:00:35;;;;;;;24.50;14.87;;;;;;;1.84;100.00;99801.71;2079185;86;20964;-88
2022/10/12 03:03:36;;;;;;;25.02;14.58;;;;;;;1.85;100.00;99802.54;2079155;86;20956;-89
2022/10/12 03:06:36;;;;;;;20.97;14.58;;;;;;;1.85;100.00;99797.38;2079178;86;21098;-88
2022/10/12 03:09:37;;;;;;;21.27;14.73;;;;;;;1.87;100.00;99798.09;2081009;85;20965;-88
2022/10/12 03:12:38;;;;;;;28.35;15.13;;;;;;;1.87;100.00;99793.76;2080532;82;21024;-88
2022/10/12 03:15:39;;;;;;;21.05;15.72;;;;;;;1.89;100.00;99793.66;2079333;86;21028;-90
2022/10/12 03:18:40;;;;;;;18.67;13.78;;;;;;;1.88;100.00;99790.25;2079082;86;21527;-93
2022/10/12 03:21:40;;;;;;;25.15;14.33;;;;;;;1.87;100.00;99799.39;2077822;86;21003;-91
2022/10/12 03:24:41;;;;;;;26.95;16.35;;;;;;;1.85;100.00;99795.62;2076816;86;21059;-93
2022/10/12 03:27:42;;;;;;;20.23;15.72;;;;;;;1.88;100.00;99792.83;2077162;86;20996;-92
2022/10/12 03:30:42;;;;;;;24.95;15.75;;;;;;;1.91;100.00;99793.09;2076603;86;21038;-92
2022/10/12 03:33:43;;;;;;;23.07;16.75;;;;;;;1.91;100.00;99792.63;2076859;86;21047;-93
2022/10/12 03:36:44;;;;;;;22.50;14.43;;;;;;;1.93;100.00;99796.42;2076582;86;20992;-92
2022/10/12 03:39:45;;;;;;;21.40;15.75;;;;;;;1.94;100.00;99789.86;2065321;86;21070;-91
2022/10/12 03:42:45;;;;;;;20.62;15.58;;;;;;;1.95;100.00;99794.09;2065206;86;21019;-91
2022/10/12 03:45:46;;;;;;;25.65;15.40;;;;;;;1.93;100.00;99798.55;2065362;86;21020;-91
2022/10/12 03:48:47;;;;;;;23.73;14.63;;;;;;;1.95;100.00;99792.80;2065118;85;21056;-91
2022/10/12 03:51:47;;;;;;;21.23;14.87;;;;;;;1.96;100.00;99797.51;2065257;86;21048;-90
2022/10/12 03:54:48;;;;;;;24.43;14.53;;;;;;;1.95;100.00;99791.98;2065274;86;21064;-90
2022/10/12 03:57:49;;;;;;;22.32;15.03;;;;;;;1.93;100.00;99786.92;2065388;86;21035;-92
2022/10/12 04:00:49;;;;;;;25.40;15.32;;;;;;;1.92;100.00;99795.59;2065309;86;21004;-88
2022/10/12 04:03:50;;;;;;;27.15;14.68;;;;;;;1.91;100.00;99796.50;2065354;86;20965;-90
2022/10/12 04:06:51;;;;;;;22.60;13.13;;;;;;;1.85;100.00;99798.20;2065339;86;21052;-91
2022/10/12 04:09:51;;;;;;;25.62;15.48;;;;;;;1.79;100.00;99797.29;2068203;86;20973;-89
2022/10/12 04:12:52;;;;;;;19.82;12.98;;;;;;;1.78;100.00;99803.38;2069850;84;20977;-89
2022/10/12 04:15:53;;;;;;;23.22;13.70;;;;;;;1.80;100.00;99802.81;2067019;86;21063;-87
2022/10/12 04:18:53;;;;;;;23.98;13.95;;;;;;;1.84;100.00;99808.63;2065401;86;21056;-89
2022/10/12 04:21:54;;;;;;;24.18;14.18;;;;;;;1.88;100.00;99808.33;2065315;86;20968;-89
2022/10/12 04:24:55;;;;;;;23.67;16.82;;;;;;;1.92;100.00;99809.80;2065195;86;21040;-89
2022/10/12 04:27:56;;;;;;;24.23;16.67;;;;;;;1.91;100.00;99811.16;2064852;86;21065;-89
2022/10/12 04:30:56;;;;;;;31.57;18.00;;;;;;;1.79;100.00;99814.08;2065499;86;21051;-90
2022/10/12 04:33:57;;;;;;;30.72;17.30;;;;;;;1.66;100.00;99809.33;2065675;86;21027;-90
2022/10/12 04:36:58;;;;;;;22.82;16.30;;;;;;;1.59;100.00;99811.46;2065596;86;21027;-90
2022/10/12 04:39:58;;;;;;;23.32;16.10;;;;;;;1.58;100.00;99811.09;2065459;86;21035;-90
2022/10/12 04:42:59;;;;;;;28.15;16.60;;;;;;;1.58;100.00;99818.84;2065747;86;21032;-90
2022/10/12 04:46:03;;;;;;;25.77;17.25;;;;;;;1.58;100.00;99805.11;2065526;86;21025;-90
2022/10/12 04:49:03;;;;;;;31.73;17.05;;;;;;;1.61;100.00;99815.23;2068300;85;21644;-90
2022/10/12 04:52:04;;;;;;;26.45;15.53;;;;;;;1.62;100.00;99812.55;2090734;85;20966;-90
2022/10/12 04:55:07;;;;;;;23.65;16.90;;;;;;;1.61;100.00;99810.89;2067472;86;21053;-90
2022/10/12 04:58:08;;;;;;;29.63;17.02;;;;;;;1.65;100.00;99811.09;2105642;84;21028;-87
2022/10/12 05:01:09;;;;;;;30.15;16.77;;;;;;;1.71;100.00;99815.84;2105987;85;21068;-90
2022/10/12 05:04:09;;;;;;;25.95;17.20;;;;;;;1.79;100.00;99814.08;2105374;85;21020;-90
2022/10/12 05:07:10;;;;;;;37.05;17.92;;;;;;;1.82;100.00;99819.50;2068898;86;20993;-88
2022/10/12 05:10:11;;;;;;;29.82;17.70;;;;;;;1.84;100.00;99825.42;2106399;84;21059;-87
2022/10/12 05:13:12;;;;;;;31.42;17.95;;;;;;;1.85;100.00;99823.20;2069313;86;21446;-88
2022/10/12 05:16:13;;;;;;;34.27;19.95;;;;;;;1.86;100.00;99825.68;2107861;85;21068;-87
2022/10/12 05:19:14;;;;;;;32.40;20.02;;;;;;;1.85;100.00;99822.73;2068181;86;20938;-89
2022/10/12 05:22:17;;;;;;;25.92;18.37;;;;;;;1.89;100.00;99825.94;2106675;84;21043;-89
2022/10/12 05:25:18;;;;;;;29.63;17.80;;;;;;;1.92;100.00;99829.17;2105368;85;21132;-91
2022/10/12 05:28:21;;;;;;;28.02;17.40;;;;;;;1.97;100.00;99825.82;2049215;86;21073;-89
2022/10/12 05:31:21;;;;;;;28.65;17.27;;;;;;;2.05;100.00;99825.80;2105352;84;21056;-89
2022/10/12 05:34:22;;;;;;;33.67;19.25;;;;;;;2.11;100.00;99831.88;2105287;85;21001;-90
2022/10/12 05:37:23;;;;;;;29.63;18.70;;;;;;;2.16;100.00;99829.34;2105338;85;21072;-88
2022/10/12 05:40:24;;;;;;;32.30;21.12;;;;;;;2.22;100.00;99827.66;2105053;85;21034;-89
2022/10/12 05:43:24;;;;;;;38.02;22.75;;;;;;;2.35;100.00;99830.73;2066979;86;21029;-89
2022/10/12 05:46:25;;;;;;;70.97;55.15;;;;;;;2.48;100.00;99832.89;2105096;84;21036;-89
2022/10/12 05:49:26;;;;;;;79.35;55.98;;;;;;;2.55;100.00;99836.24;2062581;86;21021;-91
2022/10/12 05:52:26;;;;;;;53.48;32.58;;;;;;;2.53;100.00;99842.45;2032871;87;21505;-93
2022/10/12 05:55:28;;;;;;;52.80;32.83;;;;;;;2.50;100.00;99838.78;2077277;86;21538;-96
2022/10/12 05:58:29;;;;;;;52.55;32.15;;;;;;;2.60;100.00;99838.54;2078262;86;21008;-96
2022/10/12 06:01:33;;;;;;;62.13;32.70;;;;;;;2.70;100.00;99839.58;2060134;86;20995;-96
2022/10/12 06:04:32;;;;;;;46.53;29.02;;;;;;;2.85;100.00;99846.33;2030758;88;21523;-94
2022/10/12 06:07:38;;;;;;;43.45;27.15;;;;;;;3.02;100.00;99838.73;2027414;88;21112;-94
2022/10/12 06:10:41;;;;;;;47.43;25.97;;;;;;;3.20;100.00;99840.52;2031299;88;21136;-93
2022/10/12 06:20:02;;;;;;;45.20;27.32;;;;;;;3.73;100.00;99845.00;2103456;81;21098;-92
2022/10/12 06:23:03;;;;;;;47.83;25.35;;;;;;;3.91;100.00;99846.28;2085795;84;21088;-92
2022/10/12 06:26:05;;;;;;;37.13;23.40;;;;;;;4.11;100.00;99849.20;2081396;84;21624;-93
2022/10/12 06:29:08;;;;;;;40.98;23.75;;;;;;;4.30;100.00;99857.33;2175218;80;21019;-94
2022/10/12 06:32:08;;;;;;;31.82;19.67;;;;;;;4.47;100.00;99848.29;2229662;79;20956;-92
2022/10/12 06:35:09;;;;;;;34.50;19.67;;;;;;;4.62;100.00;99843.74;2235545;80;21036;-91
2022/10/12 06:38:10;;;;;;;29.55;17.95;;;;;;;4.78;100.00;99847.68;2235468;80;20987;-91
2022/10/12 06:41:20;;;;;;;26.70;17.05;;;;;;;5.00;100.00;99853.36;2235419;80;21492;-92
2022/10/12 06:44:21;;;;;;;26.35;17.42;;;;;;;5.19;100.00;99848.06;2235557;80;21012;-91
2022/10/12 06:47:22;;;;;;;29.35;17.02;;;;;;;5.39;100.00;99848.66;2235588;80;21015;-91
2022/10/12 06:50:22;;;;;;;26.97;16.50;;;;;;;5.59;100.00;99851.84;2235421;80;21023;-94
2022/10/12 06:53:26;;;;;;;28.23;16.30;;;;;;;5.83;100.00;99846.47;2236277;80;21023;-91
2022/10/12 06:56:29;;;;;;;24.02;16.97;;;;;;;6.02;100.00;99851.53;2236619;79;20969;-91
2022/10/12 06:59:28;;;;;;;26.12;16.00;;;;;;;6.19;100.00;99860.11;2235556;79;20996;-91
2022/10/12 07:02:29;;;;;;;28.65;16.00;;;;;;;6.37;100.00;99856.50;2236998;80;21546;-90
2022/10/12 07:05:30;;;;;;;30.25;16.85;;;;;;;6.49;100.00;99853.73;2236161;80;21548;-91
2022/10/12 07:08:31;;;;;;;28.12;18.00;;;;;;;6.67;100.00;99855.27;2201987;80;22385;-90
2022/10/12 07:11:32;;;;;;;26.73;18.37;;;;;;;6.82;100.00;99862.30;2237134;80;20945;-90
2022/10/12 07:14:36;;;;;;;29.35;18.37;;;;;;;6.99;100.00;99868.70;2239519;80;20946;-87
2022/10/12 07:17:37;;;;;;;29.87;19.98;;;;;;;7.15;100.00;99872.98;2238112;80;21008;-89
2022/10/12 07:20:39;;;;;;;32.17;20.90;;;;;;;7.27;100.00;99869.33;2218617;79;21069;-91
2022/10/12 07:23:40;;;;;;;29.23;20.32;;;;;;;7.39;100.00;99866.97;2214549;80;21040;-88
2022/10/12 07:26:43;;;;;;;34.80;20.48;;;;;;;7.53;100.00;99859.29;2137112;83;21056;-90
2022/10/12 07:29:43;;;;;;;34.13;22.73;;;;;;;7.70;100.00;99863.05;2135321;83;21603;-92
2022/10/12 07:32:45;;;;;;;29.82;20.32;;;;;;;7.87;100.00;99857.20;2135217;83;21531;-88
2022/10/12 07:35:46;;;;;;;33.75;21.45;;;;;;;8.00;100.00;99859.53;2135438;83;21013;-88
2022/10/12 07:38:47;;;;;;;34.58;21.87;;;;;;;8.20;100.00;99855.98;2137032;83;21052;-88
2022/10/12 07:41:48;;;;;;;35.20;22.17;;;;;;;8.36;100.00;99855.48;2135289;83;21044;-88
2022/10/12 07:44:49;;;;;;;29.05;19.60;;;;;;;8.50;100.00;99852.91;2135427;83;21547;-89
2022/10/12 07:47:50;;;;;;;44.20;26.60;;;;;;;8.62;100.00;99857.05;2135132;83;21006;-92
2022/10/12 07:50:50;;;;;;;46.83;27.07;;;;;;;8.67;100.00;99852.22;2135107;83;21006;-86
2022/10/12 07:53:51;;;;;;;41.13;26.50;;;;;;;8.69;100.00;99851.62;2135091;83;20989;-86
2022/10/12 07:56:52;;;;;;;40.48;25.85;;;;;;;8.74;100.00;99851.19;2135262;83;21024;-86
2022/10/12 07:59:53;;;;;;;41.33;27.40;;;;;;;8.74;100.00;99855.10;2135313;83;21068;-87
2022/10/12 08:02:53;;;;;;;42.23;26.07;;;;;;;8.75;100.00;99847.60;2135245;83;21020;-87
2022/10/12 08:05:54;;;;;;;40.95;26.70;;;;;;;8.78;100.00;99843.42;2135227;83;21060;-87
2022/10/12 08:08:55;;;;;;;52.20;28.83;;;;;;;8.88;100.00;99848.63;2135131;83;21598;-86
2022/10/12 08:11:56;;;;;;;41.20;27.20;;;;;;;8.93;100.00;99845.92;2135246;83;20977;-86
2022/10/12 08:14:57;;;;;;;42.48;27.62;;;;;;;9.01;100.00;99850.44;2136470;83;21523;-87
2022/10/12 08:17:57;;;;;;;41.23;26.85;;;;;;;9.06;100.00;99851.67;2138732;83;21138;-85
2022/10/12 08:20:58;;;;;;;42.40;26.75;;;;;;;9.09;100.00;99853.17;2116012;82;21046;-85
2022/10/12 08:23:59;;;;;;;37.10;26.95;;;;;;;9.10;100.00;99853.50;2111917;84;21033;-86
2022/10/12 08:26:59;;;;;;;42.62;26.73;;;;;;;9.16;100.00;99852.12;2110949;84;21029;-88
2022/10/12 08:30:00;;;;;;;41.53;26.95;;;;;;;9.31;100.00;99851.98;2160349;81;21518;-87
2022/10/12 08:33:01;;;;;;;33.70;26.10;;;;;;;9.41;100.00;99854.06;2191357;81;21026;-87
2022/10/12 08:36:02;;;;;;;41.80;26.00;;;;;;;9.48;100.00;99847.78;2191344;80;20955;-87
2022/10/12 08:39:05;;;;;;;45.48;28.57;;;;;;;9.56;100.00;99848.70;2191239;81;20975;-88
2022/10/12 08:42:05;;;;;;;49.10;28.92;;;;;;;9.66;100.00;99848.17;2191421;81;21070;-87
2022/10/12 08:45:09;;;;;;;41.25;27.93;;;;;;;9.75;100.00;99850.88;2191588;81;20963;-88
2022/10/12 08:48:08;;;;;;;45.58;27.00;;;;;;;9.82;100.00;99850.16;2191056;81;21015;-88
2022/10/12 08:51:09;;;;;;;34.48;23.02;;;;;;;9.94;100.00;99849.45;2191349;81;20998;-88
2022/10/12 08:54:10;;;;;;;42.43;24.35;;;;;;;10.01;100.00;99845.77;2159259;81;20976;-89
2022/10/12 08:57:11;;;;;;;39.55;21.97;;;;;;;10.05;100.00;99842.69;2191296;81;21034;-88
2022/10/12 09:00:11;;;;;;;32.42;20.50;;;;;;;10.13;100.00;99839.33;2191255;81;20991;-88
2022/10/12 09:03:12;;;;;;;30.40;18.40;;;;;;;10.21;100.00;99848.09;2192132;81;21366;-87
2022/10/12 09:06:13;;;;;;;26.57;16.93;;;;;;;10.27;100.00;99850.63;2194318;79;20995;-86
2022/10/12 09:09:13;;;;;;;28.67;19.92;;;;;;;10.31;100.00;99848.05;2191989;81;20983;-88
2022/10/12 09:12:14;;;;;;;34.10;20.97;;;;;;;10.35;100.00;99846.78;2191457;81;20995;-89
2022/10/12 09:15:15;;;;;;;35.70;16.90;;;;;;;10.42;100.00;99842.59;2191920;81;21015;-88
2022/10/12 09:18:16;;;;;;;29.80;18.32;;;;;;;10.49;100.00;99845.41;2195862;81;21283;-85
2022/10/12 09:21:16;;;;;;;27.10;16.00;;;;;;;10.57;100.00;99844.17;2260837;79;21017;-86
2022/10/12 09:24:17;;;;;;;29.42;15.25;;;;;;;10.67;100.00;99844.08;2260183;79;21004;-87
2022/10/12 09:27:18;;;;;;;37.33;17.57;;;;;;;10.78;100.00;99851.20;2257736;78;21484;-88
2022/10/12 09:30:20;;;;;;;32.98;14.28;;;;;;;10.86;100.00;99845.19;2257137;78;21012;-89
2022/10/12 09:33:21;;;;;;;20.45;11.22;;;;;;;10.96;100.00;99849.02;2257074;78;21000;-88
2022/10/12 09:36:22;;;;;;;34.33;16.65;;;;;;;11.05;100.00;99846.78;2257050;79;20980;-87
2022/10/12 09:39:22;;;;;;;15.30;8.70;;;;;;;11.13;100.00;99848.14;2256846;78;21036;-87
2022/10/12 09:42:23;;;;;;;22.20;10.23;;;;;;;11.19;100.00;99847.53;2257042;78;21041;-87
2022/10/12 09:45:31;;;;;;;15.48;10.65;;;;;;;11.28;100.00;99851.84;2257144;78;20984;-88
2022/10/12 09:48:28;;;;;;;14.18;9.65;;;;;;;11.38;100.00;99846.48;2254654;79;21515;-89
2022/10/12 09:51:29;;;;;;;13.72;8.53;;;;;;;11.43;100.00;99855.17;2256912;78;21028;-87
2022/10/12 09:54:30;;;;;;;13.28;6.62;;;;;;;11.47;100.00;99859.95;2256877;78;20910;-89
2022/10/12 09:57:32;;;;;;;15.70;6.85;;;;;;;11.51;100.00;99849.47;2257029;78;21511;-89
2022/10/12 10:00:33;;;;;;;8.95;5.87;;;;;;;11.58;100.00;99847.86;2257115;79;21001;-88
2022/10/12 10:03:37;;;;;;;13.60;6.20;;;;;;;11.64;100.00;99845.93;2256731;78;21000;-88
2022/10/12 10:06:37;;;;;;;9.80;5.35;;;;;;;11.69;100.00;99837.56;2256769;79;20985;-88
2022/10/12 10:09:37;;;;;;;11.28;4.60;;;;;;;11.76;100.00;99838.58;2257088;78;20989;-88
2022/10/12 10:12:38;;;;;;;7.75;2.80;;;;;;;11.76;100.00;99841.20;2257218;79;20958;-88
2022/10/12 10:15:39;;;;;;;6.33;2.87;;;;;;;11.77;100.00;99842.84;2257010;78;20961;-88
2022/10/12 10:18:41;;;;;;;5.25;2.45;;;;;;;11.80;100.00;99841.76;2256798;79;20981;-86
2022/10/12 10:21:42;;;;;;;8.03;2.70;;;;;;;11.87;100.00;99842.73;2227000;79;21457;-87
2022/10/12 10:24:43;;;;;;;6.60;2.83;;;;;;;11.99;100.00;99840.66;2226618;80;21025;-88
2022/10/12 10:27:44;;;;;;;7.85;2.17;;;;;;;12.08;100.00;99833.13;2222292;80;21016;-87
2022/10/12 10:30:44;;;;;;;9.48;3.05;;;;;;;12.26;100.00;99833.80;2223035;79;21039;-89
2022/10/12 10:33:45;;;;;;;6.85;3.10;;;;;;;12.43;100.00;99838.54;2221879;80;20997;-88
2022/10/12 10:36:46;;;;;;;5.45;3.40;;;;;;;12.58;100.00;99838.71;2221898;79;21048;-88
2022/10/12 10:39:47;;;;;;;10.13;3.15;;;;;;;12.69;100.00;99839.19;2197994;80;21567;-88
2022/10/12 10:42:47;;;;;;;3.27;2.77;;;;;;;12.88;100.00;99839.33;2221946;79;20980;-89
2022/10/12 10:45:48;;;;;;;8.90;2.80;;;;;;;12.99;100.00;99835.06;2221899;80;21448;-89
2022/10/12 10:48:50;;;;;;;4.87;2.47;;;;;;;13.08;100.00;99831.42;2222159;80;21044;-88
2022/10/12 10:51:52;;;;;;;5.95;3.20;;;;;;;13.19;100.00;99825.47;2222003;80;21045;-88
2022/10/12 10:54:53;;;;;;;7.33;3.33;;;;;;;13.27;100.00;99827.62;2222123;80;21035;-87
2022/10/12 10:57:56;;;;;;;5.17;3.10;;;;;;;13.43;100.00;99830.66;2222106;80;20988;-89
2022/10/12 11:00:56;;;;;;;7.17;3.50;;;;;;;13.66;100.00;99822.84;2221830;80;21045;-88
2022/10/12 11:03:57;;;;;;;7.35;3.30;;;;;;;13.82;100.00;99824.58;2222130;79;21012;-88
2022/10/12 11:06:58;;;;;;;7.20;2.60;;;;;;;13.98;100.00;99821.81;2223614;79;21015;-87
2022/10/12 11:09:59;;;;;;;3.92;2.92;;;;;;;14.07;100.00;99813.38;2224467;80;20917;-89
2022/10/12 11:13:00;;;;;;;9.05;3.15;;;;;;;14.12;100.00;99812.36;2221784;80;20918;-89
2022/10/12 11:16:03;;;;;;;5.62;2.77;;;;;;;14.14;100.00;99814.31;2221087;80;21036;-88
2022/10/12 11:19:03;;;;;;;6.78;2.60;;;;;;;14.04;100.00;99819.81;2224160;80;21594;-87
2022/10/12 11:22:04;;;;;;;7.80;3.62;;;;;;;13.88;100.00;99815.46;2191155;80;21001;-83
2022/10/12 11:25:05;;;;;;;9.30;4.20;;;;;;;13.78;100.00;99816.19;2216378;80;21008;-84
2022/10/12 11:28:06;;;;;;;8.38;4.42;;;;;;;13.68;100.00;99808.19;2213932;80;21036;-85
2022/10/12 11:31:07;;;;;;;9.05;3.15;;;;;;;13.59;100.00;99807.41;2213197;80;20996;-85
2022/10/12 11:34:08;;;;;;;9.63;3.35;;;;;;;13.49;100.00;99807.62;2211950;80;20954;-87
2022/10/12 11:37:09;;;;;;;9.35;3.37;;;;;;;13.43;100.00;99806.98;2211485;80;20973;-89
2022/10/12 11:40:09;;;;;;;8.65;3.40;;;;;;;13.35;100.00;99803.92;2211344;80;21528;-89
2022/10/12 11:43:10;;;;;;;8.08;2.92;;;;;;;13.29;100.00;99805.91;2211425;80;21445;-86
2022/10/12 11:46:11;;;;;;;8.93;4.47;;;;;;;13.22;100.00;99799.67;2211667;80;20997;-87
2022/10/12 11:49:12;;;;;;;9.50;3.30;;;;;;;13.15;100.00;99808.38;2211581;80;20989;-86
2022/10/12 11:52:13;;;;;;;8.48;3.05;;;;;;;13.13;100.00;99803.79;2213075;80;21068;-85
2022/10/12 11:55:14;;;;;;;5.58;2.70;;;;;;;13.13;100.00;99801.98;2212594;80;21592;-87
2022/10/12 11:58:15;;;;;;;8.53;4.42;;;;;;;13.18;100.00;99807.56;2212428;80;21005;-86
2022/10/12 12:01:16;;;;;;;7.15;2.55;;;;;;;13.35;100.00;99791.27;2211516;80;20961;-87
2022/10/12 12:04:17;;;;;;;5.83;2.72;;;;;;;13.56;100.00;99797.23;2211527;80;21335;-87
2022/10/12 12:07:18;;;;;;;6.97;2.52;;;;;;;13.56;100.00;99797.23;2211491;80;20993;-87
2022/10/12 12:10:19;;;;;;;5.12;2.90;;;;;;;13.58;100.00;99793.44;2211708;80;21016;-86
2022/10/12 12:13:21;;;;;;;5.33;2.90;;;;;;;13.65;100.00;99792.26;2211450;80;21032;-86
2022/10/12 12:16:22;;;;;;;8.78;3.00;;;;;;;13.71;100.00;99788.91;2211582;80;20977;-88
2022/10/12 12:19:23;;;;;;;7.35;2.90;;;;;;;13.74;100.00;99786.45;2211790;80;21492;-86
2022/10/12 12:22:25;;;;;;;7.28;2.92;;;;;;;13.75;100.00;99783.64;2233663;80;21025;-86
2022/10/12 12:25:26;;;;;;;8.35;3.65;;;;;;;13.79;100.00;99784.92;2240743;79;20988;-85
2022/10/12 12:28:27;;;;;;;6.03;2.65;;;;;;;13.82;100.00;99779.33;2238422;80;21067;-86
2022/10/12 12:31:27;;;;;;;5.35;2.65;;;;;;;13.81;100.00;99776.38;2238027;80;20960;-85
2022/10/12 12:34:28;;;;;;;5.62;2.62;;;;;;;13.82;100.00;99773.25;2236696;80;20956;-87
2022/10/12 12:37:29;;;;;;;7.40;2.65;;;;;;;13.85;100.00;99776.83;2235801;79;21079;-88
2022/10/12 12:40:29;;;;;;;5.75;2.62;;;;;;;13.90;100.00;99777.95;2235542;80;20969;-87
2022/10/12 12:43:30;;;;;;;9.53;2.83;;;;;;;13.99;100.00;99777.41;2235897;80;21003;-88
2022/10/12 12:46:32;;;;;;;4.75;3.25;;;;;;;14.05;100.00;99776.69;2235438;80;21036;-88
2022/10/12 12:49:32;;;;;;;8.15;3.70;;;;;;;14.13;100.00;99773.17;2235559;80;22071;-89
2022/10/12 12:52:33;;;;;;;4.80;2.98;;;;;;;14.19;100.00;99766.71;2235717;80;21532;-88
2022/10/12 12:55:34;;;;;;;6.60;3.17;;;;;;;14.25;100.00;99769.12;2235680;80;20972;-89
2022/10/12 12:58:34;;;;;;;4.58;2.70;;;;;;;14.31;100.00;99767.09;2235813;80;20945;-89
2022/10/12 13:01:35;;;;;;;7.92;2.85;;;;;;;14.37;100.00;99762.95;2235541;79;20996;-88
2022/10/12 13:04:36;;;;;;;9.18;3.60;;;;;;;14.33;100.00;99765.59;2235633;79;21000;-88
2022/10/12 13:07:37;;;;;;;8.08;3.70;;;;;;;14.28;100.00;99767.47;2236217;79;20972;-88
2022/10/12 13:10:37;;;;;;;6.42;3.40;;;;;;;14.28;100.00;99762.70;2237153;80;20976;-85
2022/10/12 13:13:39;;;;;;;6.17;3.05;;;;;;;14.28;100.00;99762.20;2236890;80;21052;-89
2022/10/12 13:16:39;;;;;;;5.58;2.80;;;;;;;14.24;100.00;99763.03;2235720;79;20992;-88
2022/10/12 13:19:40;;;;;;;10.55;3.33;;;;;;;14.11;100.00;99765.45;2235731;80;20945;-89
2022/10/12 13:22:41;;;;;;;8.48;3.17;;;;;;;13.98;100.00;99765.21;2218051;79;20990;-84
2022/10/12 13:25:42;;;;;;;7.67;4.47;;;;;;;13.76;100.00;99768.66;2217336;80;20965;-83
2022/10/12 13:28:42;;;;;;;9.85;3.90;;;;;;;13.57;100.00;99764.17;2215867;80;21095;-86
2022/10/12 13:31:43;;;;;;;6.65;3.15;;;;;;;13.41;100.00;99767.38;2214205;80;20996;-88
2022/10/12 13:34:44;;;;;;;8.85;3.87;;;;;;;13.23;100.00;99767.63;2213449;80;21004;-89
2022/10/12 13:37:45;;;;;;;9.98;2.83;;;;;;;13.07;100.00;99764.52;2212082;80;21483;-88
2022/10/12 13:40:45;;;;;;;13.35;2.95;;;;;;;12.97;100.00;99766.53;2211954;80;20942;-88
2022/10/12 13:43:47;;;;;;;4.53;2.80;;;;;;;12.86;100.00;99758.52;2212330;80;20946;-91
2022/10/12 13:46:49;;;;;;;7.17;3.90;;;;;;;12.78;100.00;99755.91;2212299;80;21465;-90
2022/10/12 13:49:50;;;;;;;8.68;3.22;;;;;;;12.72;100.00;99759.23;2212148;80;20934;-90
2022/10/12 13:52:51;;;;;;;8.53;3.58;;;;;;;12.64;100.00;99752.67;2212282;80;21005;-91
2022/10/12 13:55:52;;;;;;;9.60;5.20;;;;;;;12.57;100.00;99749.89;2212077;80;20993;-91
2022/10/12 13:58:53;;;;;;;12.68;4.42;;;;;;;12.53;100.00;99755.98;2212369;80;21243;-88
2022/10/12 14:01:54;;;;;;;13.68;5.37;;;;;;;12.49;100.00;99750.71;2212002;80;21507;-87